White Hall, Arkansas
Current Conditions -  °F | °C
As of 4:41 AM on Friday 21 Nov 2014 (Local Time) from KPBF Reporting Station
Overcast Overcast  
Wind Chill: 44°   Ceiling: 8500
Heat Index: 44°   Visibility: 10mi
Dew Point: 42°   Wind: 3mph
Humidity: 93%   Direction: 30°NNE
Pressure: 30.23"   Gusts: NA
Location:  34.28°N, 92.1°W
Report Text: KPBF 211041Z AUTO 03003KT 10SM FEW006 SCT038 OVC085 07/06 A3023 RMK AO2 T00670056
Loading
Personal Weather Stations






























Interactive Weather Map New forecast layout! Learn more

10-Day Weather Forecast

Advertisements
Track Severe Weather on mobile